sensor_id;sensor_type;location;lat;lon;timestamp;P1;durP1;ratioP1;P2;durP2;ratioP2
67941;SDS011;54731;42.600;23.476;2023-04-22T00:01:10;5.00;;;3.80;;
67941;SDS011;54731;42.600;23.476;2023-04-22T00:03:36;5.70;;;3.83;;
67941;SDS011;54731;42.600;23.476;2023-04-22T00:06:01;6.70;;;4.20;;
67941;SDS011;54731;42.600;23.476;2023-04-22T00:08:26;7.05;;;4.60;;
67941;SDS011;54731;42.600;23.476;2023-04-22T00:10:52;8.00;;;4.30;;
67941;SDS011;54731;42.600;23.476;2023-04-22T00:13:17;6.10;;;4.40;;
67941;SDS011;54731;42.600;23.476;2023-04-22T00:15:42;9.43;;;4.80;;
67941;SDS011;54731;42.600;23.476;2023-04-22T00:18:08;7.17;;;4.40;;
67941;SDS011;54731;42.600;23.476;2023-04-22T00:20:33;6.00;;;4.60;;
67941;SDS011;54731;42.600;23.476;2023-04-22T00:22:58;8.48;;;4.72;;
67941;SDS011;54731;42.600;23.476;2023-04-22T00:25:24;8.30;;;4.68;;
67941;SDS011;54731;42.600;23.476;2023-04-22T00:27:49;6.43;;;4.80;;
67941;SDS011;54731;42.600;23.476;2023-04-22T00:30:14;6.60;;;5.40;;
67941;SDS011;54731;42.600;23.476;2023-04-22T00:32:40;6.07;;;4.90;;
67941;SDS011;54731;42.600;23.476;2023-04-22T00:35:05;8.17;;;4.93;;
67941;SDS011;54731;42.600;23.476;2023-04-22T00:37:31;7.03;;;5.28;;
67941;SDS011;54731;42.600;23.476;2023-04-22T00:39:56;7.27;;;4.60;;
67941;SDS011;54731;42.600;23.476;2023-04-22T00:42:21;6.30;;;4.40;;
67941;SDS011;54731;42.600;23.476;2023-04-22T00:44:47;10.87;;;5.37;;
67941;SDS011;54731;42.600;23.476;2023-04-22T00:47:13;7.70;;;5.32;;
67941;SDS011;54731;42.600;23.476;2023-04-22T00:49:38;7.73;;;4.70;;
67941;SDS011;54731;42.600;23.476;2023-04-22T00:52:04;6.40;;;5.10;;
67941;SDS011;54731;42.600;23.476;2023-04-22T00:54:29;10.33;;;5.80;;
67941;SDS011;54731;42.600;23.476;2023-04-22T00:56:55;10.35;;;6.53;;
67941;SDS011;54731;42.600;23.476;2023-04-22T00:59:22;10.05;;;5.70;;
67941;SDS011;54731;42.600;23.476;2023-04-22T01:01:49;7.38;;;5.30;;
67941;SDS011;54731;42.600;23.476;2023-04-22T01:04:15;8.25;;;5.57;;
67941;SDS011;54731;42.600;23.476;2023-04-22T01:06:40;7.53;;;5.00;;
67941;SDS011;54731;42.600;23.476;2023-04-22T01:09:07;9.00;;;5.13;;
67941;SDS011;54731;42.600;23.476;2023-04-22T01:11:33;5.95;;;4.90;;
67941;SDS011;54731;42.600;23.476;2023-04-22T01:13:59;6.47;;;5.00;;
67941;SDS011;54731;42.600;23.476;2023-04-22T01:16:25;6.20;;;5.07;;
67941;SDS011;54731;42.600;23.476;2023-04-22T01:18:50;6.85;;;4.28;;
67941;SDS011;54731;42.600;23.476;2023-04-22T01:21:16;6.47;;;4.72;;
67941;SDS011;54731;42.600;23.476;2023-04-22T01:23:42;5.93;;;4.87;;
67941;SDS011;54731;42.600;23.476;2023-04-22T01:26:08;7.15;;;5.00;;
67941;SDS011;54731;42.600;23.476;2023-04-22T01:28:33;6.43;;;4.67;;
67941;SDS011;54731;42.600;23.476;2023-04-22T01:30:58;9.83;;;5.30;;
67941;SDS011;54731;42.600;23.476;2023-04-22T01:33:24;7.30;;;5.40;;
67941;SDS011;54731;42.600;23.476;2023-04-22T01:35:49;6.03;;;4.97;;
67941;SDS011;54731;42.600;23.476;2023-04-22T01:38:15;9.18;;;4.95;;
67941;SDS011;54731;42.600;23.476;2023-04-22T01:40:40;10.45;;;5.10;;
67941;SDS011;54731;42.600;23.476;2023-04-22T01:43:05;12.07;;;5.93;;
67941;SDS011;54731;42.600;23.476;2023-04-22T01:45:31;9.07;;;5.90;;
67941;SDS011;54731;42.600;23.476;2023-04-22T01:47:56;10.37;;;5.47;;
67941;SDS011;54731;42.600;23.476;2023-04-22T01:50:22;20.40;;;8.13;;
67941;SDS011;54731;42.600;23.476;2023-04-22T01:52:48;8.00;;;5.90;;
67941;SDS011;54731;42.600;23.476;2023-04-22T01:55:14;8.07;;;5.13;;
67941;SDS011;54731;42.600;23.476;2023-04-22T01:57:39;6.13;;;4.70;;
67941;SDS011;54731;42.600;23.476;2023-04-22T02:00:05;8.27;;;4.47;;
67941;SDS011;54731;42.600;23.476;2023-04-22T02:02:31;9.32;;;4.70;;
67941;SDS011;54731;42.600;23.476;2023-04-22T02:04:57;6.77;;;4.47;;
67941;SDS011;54731;42.600;23.476;2023-04-22T02:07:22;6.57;;;5.03;;
67941;SDS011;54731;42.600;23.476;2023-04-22T02:09:48;8.38;;;5.07;;
67941;SDS011;54731;42.600;23.476;2023-04-22T02:12:14;7.60;;;4.93;;
67941;SDS011;54731;42.600;23.476;2023-04-22T02:14:39;7.43;;;4.60;;
67941;SDS011;54731;42.600;23.476;2023-04-22T02:17:04;7.83;;;4.87;;
67941;SDS011;54731;42.600;23.476;2023-04-22T02:19:30;9.67;;;5.40;;
67941;SDS011;54731;42.600;23.476;2023-04-22T02:21:55;10.27;;;5.73;;
67941;SDS011;54731;42.600;23.476;2023-04-22T02:24:21;5.68;;;4.72;;
67941;SDS011;54731;42.600;23.476;2023-04-22T02:26:46;10.97;;;5.80;;
67941;SDS011;54731;42.600;23.476;2023-04-22T02:29:12;6.10;;;4.37;;
67941;SDS011;54731;42.600;23.476;2023-04-22T02:31:37;7.70;;;4.63;;
67941;SDS011;54731;42.600;23.476;2023-04-22T02:34:03;9.53;;;5.73;;
67941;SDS011;54731;42.600;23.476;2023-04-22T02:36:28;9.20;;;5.97;;
67941;SDS011;54731;42.600;23.476;2023-04-22T02:38:53;6.83;;;4.77;;
67941;SDS011;54731;42.600;23.476;2023-04-22T02:41:19;6.50;;;5.30;;
67941;SDS011;54731;42.600;23.476;2023-04-22T02:43:44;8.83;;;5.27;;
67941;SDS011;54731;42.600;23.476;2023-04-22T02:46:09;7.30;;;5.27;;
67941;SDS011;54731;42.600;23.476;2023-04-22T02:48:35;9.27;;;5.28;;
67941;SDS011;54731;42.600;23.476;2023-04-22T02:51:00;8.77;;;6.00;;
67941;SDS011;54731;42.600;23.476;2023-04-22T02:53:26;9.10;;;5.77;;
67941;SDS011;54731;42.600;23.476;2023-04-22T02:55:51;8.37;;;5.17;;
67941;SDS011;54731;42.600;23.476;2023-04-22T02:58:16;10.27;;;6.20;;
67941;SDS011;54731;42.600;23.476;2023-04-22T03:00:41;12.00;;;6.10;;
67941;SDS011;54731;42.600;23.476;2023-04-22T03:03:07;7.67;;;5.13;;
67941;SDS011;54731;42.600;23.476;2023-04-22T03:05:32;7.90;;;5.10;;
67941;SDS011;54731;42.600;23.476;2023-04-22T03:07:57;7.00;;;5.10;;
67941;SDS011;54731;42.600;23.476;2023-04-22T03:10:23;7.57;;;6.00;;
67941;SDS011;54731;42.600;23.476;2023-04-22T03:12:48;9.97;;;5.90;;
67941;SDS011;54731;42.600;23.476;2023-04-22T03:15:13;10.57;;;5.70;;
67941;SDS011;54731;42.600;23.476;2023-04-22T03:17:39;8.03;;;5.63;;
67941;SDS011;54731;42.600;23.476;2023-04-22T03:20:04;9.07;;;5.73;;
67941;SDS011;54731;42.600;23.476;2023-04-22T03:22:30;8.15;;;5.35;;
67941;SDS011;54731;42.600;23.476;2023-04-22T03:24:55;7.43;;;5.03;;
67941;SDS011;54731;42.600;23.476;2023-04-22T03:27:20;6.70;;;4.53;;
67941;SDS011;54731;42.600;23.476;2023-04-22T03:29:46;7.10;;;4.67;;
67941;SDS011;54731;42.600;23.476;2023-04-22T03:32:11;9.37;;;5.87;;
67941;SDS011;54731;42.600;23.476;2023-04-22T03:34:36;6.13;;;4.80;;
67941;SDS011;54731;42.600;23.476;2023-04-22T03:37:01;6.50;;;5.23;;
67941;SDS011;54731;42.600;23.476;2023-04-22T03:39:27;6.50;;;4.87;;
67941;SDS011;54731;42.600;23.476;2023-04-22T03:41:52;11.53;;;5.43;;
67941;SDS011;54731;42.600;23.476;2023-04-22T03:44:17;6.87;;;4.80;;
67941;SDS011;54731;42.600;23.476;2023-04-22T03:46:43;8.05;;;5.22;;
67941;SDS011;54731;42.600;23.476;2023-04-22T03:49:08;10.30;;;4.70;;
67941;SDS011;54731;42.600;23.476;2023-04-22T03:51:33;8.63;;;4.87;;
67941;SDS011;54731;42.600;23.476;2023-04-22T03:53:58;8.93;;;5.20;;
67941;SDS011;54731;42.600;23.476;2023-04-22T03:56:24;9.90;;;5.40;;
67941;SDS011;54731;42.600;23.476;2023-04-22T03:58:49;7.73;;;4.93;;
67941;SDS011;54731;42.600;23.476;2023-04-22T04:01:15;7.10;;;5.20;;
67941;SDS011;54731;42.600;23.476;2023-04-22T04:03:40;9.70;;;5.47;;
67941;SDS011;54731;42.600;23.476;2023-04-22T04:06:05;9.37;;;6.07;;
67941;SDS011;54731;42.600;23.476;2023-04-22T04:08:31;8.37;;;5.73;;
67941;SDS011;54731;42.600;23.476;2023-04-22T04:10:56;7.00;;;5.07;;
67941;SDS011;54731;42.600;23.476;2023-04-22T04:13:21;8.30;;;5.43;;
67941;SDS011;54731;42.600;23.476;2023-04-22T04:15:46;7.57;;;5.30;;
67941;SDS011;54731;42.600;23.476;2023-04-22T04:18:12;7.57;;;6.03;;
67941;SDS011;54731;42.600;23.476;2023-04-22T04:20:37;6.87;;;5.80;;
67941;SDS011;54731;42.600;23.476;2023-04-22T04:23:02;7.18;;;5.35;;
67941;SDS011;54731;42.600;23.476;2023-04-22T04:25:28;7.22;;;5.07;;
67941;SDS011;54731;42.600;23.476;2023-04-22T04:27:53;9.27;;;5.50;;
67941;SDS011;54731;42.600;23.476;2023-04-22T04:30:18;9.17;;;5.37;;
67941;SDS011;54731;42.600;23.476;2023-04-22T04:32:44;8.07;;;5.57;;
67941;SDS011;54731;42.600;23.476;2023-04-22T04:35:09;16.93;;;10.97;;
67941;SDS011;54731;42.600;23.476;2023-04-22T04:37:35;19.08;;;12.40;;
67941;SDS011;54731;42.600;23.476;2023-04-22T04:40:00;22.33;;;14.43;;
67941;SDS011;54731;42.600;23.476;2023-04-22T04:42:25;14.97;;;10.00;;
67941;SDS011;54731;42.600;23.476;2023-04-22T04:44:51;15.50;;;9.50;;
67941;SDS011;54731;42.600;23.476;2023-04-22T04:47:16;16.77;;;10.23;;
67941;SDS011;54731;42.600;23.476;2023-04-22T04:49:42;15.73;;;9.33;;
67941;SDS011;54731;42.600;23.476;2023-04-22T04:52:07;15.20;;;8.93;;
67941;SDS011;54731;42.600;23.476;2023-04-22T04:54:32;14.43;;;9.37;;
67941;SDS011;54731;42.600;23.476;2023-04-22T04:56:58;35.73;;;16.60;;
67941;SDS011;54731;42.600;23.476;2023-04-22T04:59:23;30.27;;;16.33;;
67941;SDS011;54731;42.600;23.476;2023-04-22T05:01:48;36.00;;;17.00;;
67941;SDS011;54731;42.600;23.476;2023-04-22T05:04:13;21.30;;;14.60;;
67941;SDS011;54731;42.600;23.476;2023-04-22T05:06:39;20.43;;;12.70;;
67941;SDS011;54731;42.600;23.476;2023-04-22T05:09:04;19.08;;;12.63;;
67941;SDS011;54731;42.600;23.476;2023-04-22T05:11:29;18.10;;;11.43;;
67941;SDS011;54731;42.600;23.476;2023-04-22T05:13:55;42.27;;;19.80;;
67941;SDS011;54731;42.600;23.476;2023-04-22T05:16:20;33.63;;;17.10;;
67941;SDS011;54731;42.600;23.476;2023-04-22T05:18:46;29.30;;;14.93;;
67941;SDS011;54731;42.600;23.476;2023-04-22T05:21:11;28.07;;;14.93;;
67941;SDS011;54731;42.600;23.476;2023-04-22T05:23:36;16.27;;;11.57;;
67941;SDS011;54731;42.600;23.476;2023-04-22T05:26:01;23.95;;;14.02;;
67941;SDS011;54731;42.600;23.476;2023-04-22T05:28:27;17.10;;;11.25;;
67941;SDS011;54731;42.600;23.476;2023-04-22T05:30:52;18.97;;;11.63;;
67941;SDS011;54731;42.600;23.476;2023-04-22T05:33:17;25.43;;;13.03;;
67941;SDS011;54731;42.600;23.476;2023-04-22T05:35:43;23.27;;;13.30;;
67941;SDS011;54731;42.600;23.476;2023-04-22T05:38:08;18.37;;;11.90;;
67941;SDS011;54731;42.600;23.476;2023-04-22T05:40:33;17.17;;;10.87;;
67941;SDS011;54731;42.600;23.476;2023-04-22T05:42:58;22.47;;;11.70;;
67941;SDS011;54731;42.600;23.476;2023-04-22T05:45:24;17.53;;;10.47;;
67941;SDS011;54731;42.600;23.476;2023-04-22T05:47:49;25.67;;;13.37;;
67941;SDS011;54731;42.600;23.476;2023-04-22T05:50:14;23.10;;;12.37;;
67941;SDS011;54731;42.600;23.476;2023-04-22T05:52:40;21.90;;;11.88;;
67941;SDS011;54731;42.600;23.476;2023-04-22T05:55:05;25.33;;;13.20;;
67941;SDS011;54731;42.600;23.476;2023-04-22T05:57:31;22.00;;;12.13;;
67941;SDS011;54731;42.600;23.476;2023-04-22T05:59:57;19.73;;;11.52;;
67941;SDS011;54731;42.600;23.476;2023-04-22T06:02:23;24.33;;;14.95;;
67941;SDS011;54731;42.600;23.476;2023-04-22T06:04:49;14.20;;;10.70;;
67941;SDS011;54731;42.600;23.476;2023-04-22T06:07:14;14.83;;;10.23;;
67941;SDS011;54731;42.600;23.476;2023-04-22T06:09:39;16.35;;;10.80;;
67941;SDS011;54731;42.600;23.476;2023-04-22T06:12:05;18.00;;;10.60;;
67941;SDS011;54731;42.600;23.476;2023-04-22T06:14:30;16.50;;;10.33;;
67941;SDS011;54731;42.600;23.476;2023-04-22T06:16:55;13.77;;;9.67;;
67941;SDS011;54731;42.600;23.476;2023-04-22T06:19:20;12.53;;;9.00;;
67941;SDS011;54731;42.600;23.476;2023-04-22T06:21:46;14.47;;;9.97;;
67941;SDS011;54731;42.600;23.476;2023-04-22T06:24:11;14.70;;;10.30;;
67941;SDS011;54731;42.600;23.476;2023-04-22T06:26:36;12.60;;;9.80;;
67941;SDS011;54731;42.600;23.476;2023-04-22T06:29:02;16.95;;;11.23;;
67941;SDS011;54731;42.600;23.476;2023-04-22T06:31:27;21.60;;;11.63;;
67941;SDS011;54731;42.600;23.476;2023-04-22T06:33:52;17.37;;;11.73;;
67941;SDS011;54731;42.600;23.476;2023-04-22T06:36:18;18.93;;;11.30;;
67941;SDS011;54731;42.600;23.476;2023-04-22T06:38:43;18.17;;;10.97;;
67941;SDS011;54731;42.600;23.476;2023-04-22T06:41:08;16.77;;;12.50;;
67941;SDS011;54731;42.600;23.476;2023-04-22T06:43:34;13.73;;;10.57;;
67941;SDS011;54731;42.600;23.476;2023-04-22T06:45:59;19.33;;;11.40;;
67941;SDS011;54731;42.600;23.476;2023-04-22T06:48:25;19.60;;;11.95;;
67941;SDS011;54731;42.600;23.476;2023-04-22T06:50:50;20.10;;;11.67;;
67941;SDS011;54731;42.600;23.476;2023-04-22T06:53:15;17.63;;;12.47;;
67941;SDS011;54731;42.600;23.476;2023-04-22T06:55:41;22.53;;;12.53;;
67941;SDS011;54731;42.600;23.476;2023-04-22T06:58:06;19.03;;;13.47;;
67941;SDS011;54731;42.600;23.476;2023-04-22T07:00:31;19.88;;;12.38;;
67941;SDS011;54731;42.600;23.476;2023-04-22T07:02:57;22.23;;;13.93;;
67941;SDS011;54731;42.600;23.476;2023-04-22T07:05:22;17.73;;;11.73;;
67941;SDS011;54731;42.600;23.476;2023-04-22T07:07:48;16.93;;;11.73;;
67941;SDS011;54731;42.600;23.476;2023-04-22T07:10:13;17.87;;;10.40;;
67941;SDS011;54731;42.600;23.476;2023-04-22T07:12:38;18.87;;;10.00;;
67941;SDS011;54731;42.600;23.476;2023-04-22T07:15:04;16.60;;;10.02;;
67941;SDS011;54731;42.600;23.476;2023-04-22T07:17:30;13.38;;;8.48;;
67941;SDS011;54731;42.600;23.476;2023-04-22T07:19:55;14.00;;;9.10;;
67941;SDS011;54731;42.600;23.476;2023-04-22T07:22:21;9.63;;;7.40;;
67941;SDS011;54731;42.600;23.476;2023-04-22T07:24:46;12.73;;;7.50;;
67941;SDS011;54731;42.600;23.476;2023-04-22T07:27:11;10.57;;;7.80;;
67941;SDS011;54731;42.600;23.476;2023-04-22T07:29:37;10.18;;;6.82;;
67941;SDS011;54731;42.600;23.476;2023-04-22T07:32:02;11.23;;;6.80;;
67941;SDS011;54731;42.600;23.476;2023-04-22T07:34:27;12.73;;;7.97;;
67941;SDS011;54731;42.600;23.476;2023-04-22T07:36:53;14.33;;;7.23;;
67941;SDS011;54731;42.600;23.476;2023-04-22T07:39:18;10.67;;;9.47;;
67941;SDS011;54731;42.600;23.476;2023-04-22T07:41:43;9.90;;;6.57;;
67941;SDS011;54731;42.600;23.476;2023-04-22T07:44:09;15.17;;;7.07;;
67941;SDS011;54731;42.600;23.476;2023-04-22T07:46:34;13.23;;;7.53;;
67941;SDS011;54731;42.600;23.476;2023-04-22T07:48:59;12.15;;;7.50;;
67941;SDS011;54731;42.600;23.476;2023-04-22T07:51:25;7.57;;;6.10;;
67941;SDS011;54731;42.600;23.476;2023-04-22T07:53:50;9.57;;;6.53;;
67941;SDS011;54731;42.600;23.476;2023-04-22T07:56:15;9.90;;;6.70;;
67941;SDS011;54731;42.600;23.476;2023-04-22T07:58:41;8.60;;;6.07;;
67941;SDS011;54731;42.600;23.476;2023-04-22T08:01:06;9.13;;;5.77;;
67941;SDS011;54731;42.600;23.476;2023-04-22T08:03:31;9.80;;;6.43;;
67941;SDS011;54731;42.600;23.476;2023-04-22T08:05:56;14.47;;;8.00;;
67941;SDS011;54731;42.600;23.476;2023-04-22T08:08:22;8.00;;;4.07;;
67941;SDS011;54731;42.600;23.476;2023-04-22T08:10:48;8.10;;;5.15;;
67941;SDS011;54731;42.600;23.476;2023-04-22T08:13:14;9.60;;;5.63;;
67941;SDS011;54731;42.600;23.476;2023-04-22T08:15:39;9.87;;;5.23;;
67941;SDS011;54731;42.600;23.476;2023-04-22T08:18:05;10.57;;;5.57;;
67941;SDS011;54731;42.600;23.476;2023-04-22T08:20:30;6.83;;;5.33;;
67941;SDS011;54731;42.600;23.476;2023-04-22T08:22:55;7.93;;;4.30;;
67941;SDS011;54731;42.600;23.476;2023-04-22T08:25:21;9.23;;;3.73;;
67941;SDS011;54731;42.600;23.476;2023-04-22T08:27:46;8.75;;;3.60;;
67941;SDS011;54731;42.600;23.476;2023-04-22T08:30:13;4.43;;;3.38;;
67941;SDS011;54731;42.600;23.476;2023-04-22T08:32:39;7.00;;;3.97;;
67941;SDS011;54731;42.600;23.476;2023-04-22T08:35:04;10.17;;;4.60;;
67941;SDS011;54731;42.600;23.476;2023-04-22T08:37:29;10.13;;;4.57;;
67941;SDS011;54731;42.600;23.476;2023-04-22T08:39:55;7.90;;;4.07;;
67941;SDS011;54731;42.600;23.476;2023-04-22T08:42:20;9.20;;;4.13;;
67941;SDS011;54731;42.600;23.476;2023-04-22T08:44:47;7.45;;;3.75;;
67941;SDS011;54731;42.600;23.476;2023-04-22T08:47:13;12.85;;;5.20;;
67941;SDS011;54731;42.600;23.476;2023-04-22T08:49:38;7.80;;;5.00;;
67941;SDS011;54731;42.600;23.476;2023-04-22T08:52:04;9.47;;;4.93;;
67941;SDS011;54731;42.600;23.476;2023-04-22T08:54:29;11.07;;;4.57;;
67941;SDS011;54731;42.600;23.476;2023-04-22T08:56:55;7.87;;;4.97;;
67941;SDS011;54731;42.600;23.476;2023-04-22T08:59:21;10.52;;;4.10;;
67941;SDS011;54731;42.600;23.476;2023-04-22T09:01:49;8.57;;;4.07;;
67941;SDS011;54731;42.600;23.476;2023-04-22T09:04:16;12.38;;;4.95;;
67941;SDS011;54731;42.600;23.476;2023-04-22T09:06:43;8.77;;;4.63;;
67941;SDS011;54731;42.600;23.476;2023-04-22T09:09:08;8.53;;;4.17;;
67941;SDS011;54731;42.600;23.476;2023-04-22T09:11:33;8.97;;;4.30;;
67941;SDS011;54731;42.600;23.476;2023-04-22T09:13:59;6.13;;;4.90;;
67941;SDS011;54731;42.600;23.476;2023-04-22T09:16:24;9.88;;;4.50;;
67941;SDS011;54731;42.600;23.476;2023-04-22T09:18:49;8.33;;;4.60;;
67941;SDS011;54731;42.600;23.476;2023-04-22T09:21:15;6.43;;;4.50;;
67941;SDS011;54731;42.600;23.476;2023-04-22T09:23:50;9.63;;;4.50;;
67941;SDS011;54731;42.600;23.476;2023-04-22T09:26:18;7.32;;;4.00;;
67941;SDS011;54731;42.600;23.476;2023-04-22T09:28:47;6.05;;;4.40;;
67941;SDS011;54731;42.600;23.476;2023-04-22T09:31:17;13.77;;;4.63;;
67941;SDS011;54731;42.600;23.476;2023-04-22T09:33:46;8.95;;;4.72;;
67941;SDS011;54731;42.600;23.476;2023-04-22T09:36:32;12.60;;;6.32;;
67941;SDS011;54731;42.600;23.476;2023-04-22T09:38:58;25.83;;;15.23;;
67941;SDS011;54731;42.600;23.476;2023-04-22T09:41:32;20.33;;;14.30;;
67941;SDS011;54731;42.600;23.476;2023-04-22T09:44:02;17.48;;;9.18;;
67941;SDS011;54731;42.600;23.476;2023-04-22T09:46:29;12.65;;;6.03;;
67941;SDS011;54731;42.600;23.476;2023-04-22T09:48:56;13.10;;;5.57;;
67941;SDS011;54731;42.600;23.476;2023-04-22T09:51:22;9.57;;;5.53;;
67941;SDS011;54731;42.600;23.476;2023-04-22T09:59:21;7.83;;;4.27;;
67941;SDS011;54731;42.600;23.476;2023-04-22T10:01:48;13.95;;;4.05;;
67941;SDS011;54731;42.600;23.476;2023-04-22T10:04:15;6.93;;;4.30;;
67941;SDS011;54731;42.600;23.476;2023-04-22T10:06:41;5.03;;;3.70;;
67941;SDS011;54731;42.600;23.476;2023-04-22T10:09:07;8.23;;;3.90;;
67941;SDS011;54731;42.600;23.476;2023-04-22T10:11:32;6.67;;;3.10;;
67941;SDS011;54731;42.600;23.476;2023-04-22T10:13:58;6.35;;;2.83;;
67941;SDS011;54731;42.600;23.476;2023-04-22T10:16:24;7.33;;;2.60;;
67941;SDS011;54731;42.600;23.476;2023-04-22T10:18:50;6.03;;;3.92;;
67941;SDS011;54731;42.600;23.476;2023-04-22T10:21:18;7.18;;;3.65;;
67941;SDS011;54731;42.600;23.476;2023-04-22T10:23:45;5.03;;;2.50;;
67941;SDS011;54731;42.600;23.476;2023-04-22T10:26:11;7.15;;;3.25;;
67941;SDS011;54731;42.600;23.476;2023-04-22T10:28:40;4.23;;;2.63;;
67941;SDS011;54731;42.600;23.476;2023-04-22T10:31:18;3.25;;;2.33;;
67941;SDS011;54731;42.600;23.476;2023-04-22T10:33:44;2.50;;;1.98;;
67941;SDS011;54731;42.600;23.476;2023-04-22T10:38:44;3.60;;;2.22;;
67941;SDS011;54731;42.600;23.476;2023-04-22T10:41:23;9.60;;;2.65;;
67941;SDS011;54731;42.600;23.476;2023-04-22T10:44:03;6.50;;;2.50;;
67941;SDS011;54731;42.600;23.476;2023-04-22T10:48:55;7.17;;;3.00;;
67941;SDS011;54731;42.600;23.476;2023-04-22T10:51:40;5.03;;;2.83;;
67941;SDS011;54731;42.600;23.476;2023-04-22T10:54:07;3.40;;;2.40;;
67941;SDS011;54731;42.600;23.476;2023-04-22T10:59:31;5.13;;;1.55;;
67941;SDS011;54731;42.600;23.476;2023-04-22T11:02:06;4.70;;;2.13;;
67941;SDS011;54731;42.600;23.476;2023-04-22T11:04:32;5.15;;;2.00;;
67941;SDS011;54731;42.600;23.476;2023-04-22T11:09:43;6.88;;;2.38;;
67941;SDS011;54731;42.600;23.476;2023-04-22T11:17:35;4.80;;;2.78;;
67941;SDS011;54731;42.600;23.476;2023-04-22T11:20:03;7.18;;;2.70;;
67941;SDS011;54731;42.600;23.476;2023-04-22T11:22:33;6.22;;;2.25;;
67941;SDS011;54731;42.600;23.476;2023-04-22T11:24:59;3.50;;;2.25;;
67941;SDS011;54731;42.600;23.476;2023-04-22T11:27:26;6.15;;;2.10;;
67941;SDS011;54731;42.600;23.476;2023-04-22T11:30:01;3.53;;;1.80;;
67941;SDS011;54731;42.600;23.476;2023-04-22T11:32:27;4.60;;;1.70;;
67941;SDS011;54731;42.600;23.476;2023-04-22T11:34:53;3.85;;;1.75;;
67941;SDS011;54731;42.600;23.476;2023-04-22T11:37:18;2.83;;;1.80;;
67941;SDS011;54731;42.600;23.476;2023-04-22T11:39:44;2.37;;;1.70;;
67941;SDS011;54731;42.600;23.476;2023-04-22T11:42:11;11.20;;;2.10;;
67941;SDS011;54731;42.600;23.476;2023-04-22T11:44:37;3.47;;;2.17;;
67941;SDS011;54731;42.600;23.476;2023-04-22T11:47:03;4.72;;;1.45;;
67941;SDS011;54731;42.600;23.476;2023-04-22T11:49:28;5.00;;;1.60;;
67941;SDS011;54731;42.600;23.476;2023-04-22T11:51:54;2.80;;;1.80;;
67941;SDS011;54731;42.600;23.476;2023-04-22T11:54:30;4.22;;;1.92;;
67941;SDS011;54731;42.600;23.476;2023-04-22T11:56:56;4.65;;;2.17;;
67941;SDS011;54731;42.600;23.476;2023-04-22T11:59:24;4.47;;;2.30;;
67941;SDS011;54731;42.600;23.476;2023-04-22T12:01:50;5.72;;;1.92;;
67941;SDS011;54731;42.600;23.476;2023-04-22T12:04:16;11.60;;;6.13;;
67941;SDS011;54731;42.600;23.476;2023-04-22T12:06:41;5.63;;;2.72;;
67941;SDS011;54731;42.600;23.476;2023-04-22T12:09:06;3.03;;;2.10;;
67941;SDS011;54731;42.600;23.476;2023-04-22T12:11:32;7.03;;;2.20;;
67941;SDS011;54731;42.600;23.476;2023-04-22T12:14:03;4.40;;;1.77;;
67941;SDS011;54731;42.600;23.476;2023-04-22T12:16:37;4.88;;;1.70;;
67941;SDS011;54731;42.600;23.476;2023-04-22T12:19:04;3.53;;;1.92;;
67941;SDS011;54731;42.600;23.476;2023-04-22T12:21:29;2.97;;;2.03;;
67941;SDS011;54731;42.600;23.476;2023-04-22T12:23:56;3.87;;;1.40;;
67941;SDS011;54731;42.600;23.476;2023-04-22T12:26:23;8.45;;;2.50;;
67941;SDS011;54731;42.600;23.476;2023-04-22T12:28:50;7.30;;;2.20;;
67941;SDS011;54731;42.600;23.476;2023-04-22T12:31:15;4.70;;;1.87;;
67941;SDS011;54731;42.600;23.476;2023-04-22T12:33:42;5.25;;;1.42;;
67941;SDS011;54731;42.600;23.476;2023-04-22T12:36:08;5.28;;;1.95;;
67941;SDS011;54731;42.600;23.476;2023-04-22T12:38:33;5.45;;;1.88;;
67941;SDS011;54731;42.600;23.476;2023-04-22T12:40:59;3.50;;;1.50;;
67941;SDS011;54731;42.600;23.476;2023-04-22T12:43:25;3.83;;;1.47;;
67941;SDS011;54731;42.600;23.476;2023-04-22T12:45:50;5.88;;;2.55;;
67941;SDS011;54731;42.600;23.476;2023-04-22T12:48:16;9.70;;;3.70;;
67941;SDS011;54731;42.600;23.476;2023-04-22T12:50:41;7.43;;;3.73;;
67941;SDS011;54731;42.600;23.476;2023-04-22T12:53:08;3.22;;;1.95;;
67941;SDS011;54731;42.600;23.476;2023-04-22T12:55:34;3.47;;;1.40;;
67941;SDS011;54731;42.600;23.476;2023-04-22T12:57:59;2.20;;;1.67;;
67941;SDS011;54731;42.600;23.476;2023-04-22T13:00:25;5.30;;;1.97;;
67941;SDS011;54731;42.600;23.476;2023-04-22T13:02:50;4.17;;;1.97;;
67941;SDS011;54731;42.600;23.476;2023-04-22T13:05:16;6.03;;;1.90;;
67941;SDS011;54731;42.600;23.476;2023-04-22T13:07:43;3.30;;;2.20;;
67941;SDS011;54731;42.600;23.476;2023-04-22T13:10:10;3.95;;;2.05;;
67941;SDS011;54731;42.600;23.476;2023-04-22T13:12:40;4.95;;;2.33;;
67941;SDS011;54731;42.600;23.476;2023-04-22T13:15:06;6.20;;;2.13;;
67941;SDS011;54731;42.600;23.476;2023-04-22T13:17:33;6.20;;;2.50;;
67941;SDS011;54731;42.600;23.476;2023-04-22T13:19:59;5.23;;;2.00;;
67941;SDS011;54731;42.600;23.476;2023-04-22T13:22:24;6.28;;;2.25;;
67941;SDS011;54731;42.600;23.476;2023-04-22T13:24:49;7.80;;;3.00;;
67941;SDS011;54731;42.600;23.476;2023-04-22T13:27:15;6.43;;;3.00;;
67941;SDS011;54731;42.600;23.476;2023-04-22T13:29:40;9.23;;;3.93;;
67941;SDS011;54731;42.600;23.476;2023-04-22T13:32:06;12.10;;;4.70;;
67941;SDS011;54731;42.600;23.476;2023-04-22T13:34:32;4.87;;;2.47;;
67941;SDS011;54731;42.600;23.476;2023-04-22T13:36:57;8.40;;;3.10;;
67941;SDS011;54731;42.600;23.476;2023-04-22T13:39:25;5.88;;;3.30;;
67941;SDS011;54731;42.600;23.476;2023-04-22T13:41:51;5.53;;;3.20;;
67941;SDS011;54731;42.600;23.476;2023-04-22T13:44:17;5.25;;;2.50;;
67941;SDS011;54731;42.600;23.476;2023-04-22T13:46:42;8.73;;;2.43;;
67941;SDS011;54731;42.600;23.476;2023-04-22T13:49:08;5.95;;;2.03;;
67941;SDS011;54731;42.600;23.476;2023-04-22T13:51:34;8.38;;;2.50;;
67941;SDS011;54731;42.600;23.476;2023-04-22T13:54:00;4.88;;;2.10;;
67941;SDS011;54731;42.600;23.476;2023-04-22T13:56:25;4.03;;;2.00;;
67941;SDS011;54731;42.600;23.476;2023-04-22T13:58:51;18.60;;;3.55;;
67941;SDS011;54731;42.600;23.476;2023-04-22T14:01:16;6.82;;;2.53;;
67941;SDS011;54731;42.600;23.476;2023-04-22T14:03:42;73.53;;;11.43;;
67941;SDS011;54731;42.600;23.476;2023-04-22T14:06:08;8.05;;;2.97;;
67941;SDS011;54731;42.600;23.476;2023-04-22T14:08:33;2.73;;;1.70;;
67941;SDS011;54731;42.600;23.476;2023-04-22T14:10:59;6.27;;;2.20;;
67941;SDS011;54731;42.600;23.476;2023-04-22T14:13:25;6.17;;;2.70;;
67941;SDS011;54731;42.600;23.476;2023-04-22T14:15:51;7.40;;;2.65;;
67941;SDS011;54731;42.600;23.476;2023-04-22T14:18:16;4.40;;;2.00;;
67941;SDS011;54731;42.600;23.476;2023-04-22T14:20:41;4.97;;;1.87;;
67941;SDS011;54731;42.600;23.476;2023-04-22T14:23:07;6.60;;;1.63;;
67941;SDS011;54731;42.600;23.476;2023-04-22T14:25:32;7.55;;;1.90;;
67941;SDS011;54731;42.600;23.476;2023-04-22T14:27:57;6.63;;;1.83;;
67941;SDS011;54731;42.600;23.476;2023-04-22T14:30:23;2.57;;;1.80;;
67941;SDS011;54731;42.600;23.476;2023-04-22T14:32:48;6.67;;;2.30;;
67941;SDS011;54731;42.600;23.476;2023-04-22T14:35:14;4.00;;;2.00;;
67941;SDS011;54731;42.600;23.476;2023-04-22T14:37:39;5.05;;;2.35;;
67941;SDS011;54731;42.600;23.476;2023-04-22T14:40:05;3.17;;;1.75;;
67941;SDS011;54731;42.600;23.476;2023-04-22T14:42:31;12.10;;;1.80;;